Cartwright, Canada
Current Conditions -  °F | °C
As of 11:00 AM on Saturday 25 Oct 2014 (Local Time) from CWCA Reporting Station
Overcast Overcast  
Wind Chill: 27°   Ceiling: 3000
Heat Index: 36°   Visibility: 15mi
Dew Point: 27°   Wind: 14mph
Humidity: 70%   Direction: 90°E
Pressure: 29.96"   Gusts: NA
Location:  53.7°N, 57.03°W
Report Text: CWCA 251400Z 09012KT 15SM BKN030 OVC070 02/M03 A2996 RMK SC7AS1 SLP148
Loading
Personal Weather Stations






























Interactive Weather Map
Tropical Storm Tracking
New forecast layout! Learn more

10-Day Weather Forecast

Advertisements
Track Severe Weather on mobile